Time;durP1;ratioP1;P1;durP2;ratioP2;P2;SDS_P1;SDS_P2;PMS_P1;PMS_P2;Temp;Humidity;BMP_temperature;BMP_pressure;BME280_temperature;BME280_humidity;BME280_pressure;Samples;Min_cycle;Max_cycle;Signal;HPM_P1;HPM_P2
2023/08/03 00:00:52;;;;;;;3.50;0.70;;;;;;;17.78;67.69;97561.86;106831;1269;25352;-61
2023/08/03 00:03:30;;;;;;;1.30;0.60;;;;;;;17.87;67.63;97547.20;106756;1268;22541;-63
2023/08/03 00:06:00;;;;;;;1.50;1.10;;;;;;;17.88;67.42;97548.21;106814;1269;99277;-61
2023/08/03 00:08:28;;;;;;;1.60;0.80;;;;;;;17.77;67.84;97550.61;106901;1269;24199;-60
2023/08/03 00:11:00;;;;;;;1.00;0.70;;;;;;;17.70;68.32;97553.48;106758;1269;99511;-64
2023/08/03 00:13:29;;;;;;;1.30;0.90;;;;;;;17.63;68.44;97548.39;106866;1269;22665;-61
2023/08/03 00:15:58;;;;;;;1.70;0.80;;;;;;;17.58;68.66;97549.58;106868;1269;25288;-59
2023/08/03 00:18:27;;;;;;;1.60;0.80;;;;;;;17.58;68.85;97540.61;106790;1269;98951;-62
2023/08/03 00:20:56;;;;;;;2.90;1.20;;;;;;;17.57;69.04;97548.17;106918;1266;24186;-62
2023/08/03 00:23:25;;;;;;;3.00;1.30;;;;;;;17.56;69.12;97543.33;106824;1267;99072;-61
2023/08/03 00:25:54;;;;;;;5.10;1.10;;;;;;;17.52;69.30;97542.41;106852;1260;22604;-60
2023/08/03 00:28:22;;;;;;;2.90;1.10;;;;;;;17.48;69.41;97545.79;106819;1269;99322;-60
2023/08/03 00:30:51;;;;;;;1.70;1.00;;;;;;;17.45;69.69;97544.09;106861;1269;22600;-64
2023/08/03 00:33:20;;;;;;;1.90;1.00;;;;;;;17.42;69.70;97538.25;106893;1265;25219;-63
2023/08/03 00:35:49;;;;;;;1.20;0.90;;;;;;;17.39;69.87;97534.37;106899;1269;99428;-61
2023/08/03 00:38:18;;;;;;;1.40;0.80;;;;;;;17.37;69.96;97526.33;106833;1272;24240;-60
2023/08/03 00:40:46;;;;;;;1.10;0.80;;;;;;;17.34;70.08;97532.41;106959;1273;99334;-58
2023/08/03 00:43:15;;;;;;;1.50;0.70;;;;;;;17.33;70.27;97535.77;107032;1268;25230;-60
2023/08/03 00:45:44;;;;;;;1.10;0.80;;;;;;;17.32;70.39;97534.92;106997;1269;25230;-60
2023/08/03 00:48:13;;;;;;;1.20;0.90;;;;;;;17.33;70.49;97544.87;106796;1269;99125;-60
2023/08/03 00:50:42;;;;;;;1.30;0.70;;;;;;;17.33;70.58;97542.92;106788;1269;24360;-65
2023/08/03 00:53:11;;;;;;;1.20;1.00;;;;;;;17.31;70.64;97532.92;106762;1269;99592;-63
2023/08/03 00:55:39;;;;;;;6.00;0.90;;;;;;;17.34;71.13;97526.15;106962;1268;25309;-61
2023/08/03 00:58:08;;;;;;;3.10;1.40;;;;;;;17.34;71.12;97522.91;106801;1269;99311;-58
2023/08/03 01:00:40;;;;;;;2.90;1.00;;;;;;;17.33;71.24;97520.60;106920;1268;22552;-60
2023/08/03 01:03:08;;;;;;;2.60;1.00;;;;;;;17.32;71.39;97516.80;106753;1269;22629;-59
2023/08/03 01:05:37;;;;;;;1.90;0.80;;;;;;;17.32;71.52;97510.19;110508;1269;99670;-59
2023/08/03 01:08:06;;;;;;;2.40;0.90;;;;;;;17.30;71.89;97510.15;109034;1269;26082;-58
2023/08/03 01:10:35;;;;;;;0.90;0.80;;;;;;;17.29;72.02;97502.41;106815;1269;99312;-59
2023/08/03 01:13:04;;;;;;;2.20;0.80;;;;;;;17.33;72.22;97501.48;106904;1269;25315;-59
2023/08/03 01:15:32;;;;;;;1.50;0.80;;;;;;;17.35;72.27;97499.02;107000;1270;22527;-62
2023/08/03 01:18:01;;;;;;;1.50;0.80;;;;;;;17.35;72.34;97501.17;106809;1269;99116;-60
2023/08/03 01:20:32;;;;;;;1.90;0.70;;;;;;;17.34;72.48;97497.96;106850;1269;25415;-61
2023/08/03 01:23:04;;;;;;;1.40;0.80;;;;;;;17.36;72.59;97498.45;106834;1269;99568;-62
2023/08/03 01:25:36;;;;;;;2.70;0.90;;;;;;;17.41;72.73;97509.66;106837;1269;22523;-60
2023/08/03 01:28:06;;;;;;;1.20;1.00;;;;;;;17.52;72.95;97509.01;106788;1269;99660;-59
2023/08/03 01:30:35;;;;;;;1.50;0.90;;;;;;;17.60;72.97;97509.08;106851;1268;25270;-60
2023/08/03 01:33:03;;;;;;;2.50;1.10;;;;;;;17.68;72.98;97504.16;106824;1269;22536;-59
2023/08/03 01:35:36;;;;;;;2.40;0.80;;;;;;;17.75;72.96;97507.83;106833;1269;99156;-61
2023/08/03 01:38:05;;;;;;;1.70;0.90;;;;;;;17.83;73.09;97509.73;106984;1269;22524;-59
2023/08/03 01:40:33;;;;;;;1.00;0.80;;;;;;;17.91;72.99;97509.27;106719;1268;99276;-61
2023/08/03 01:43:11;;;;;;;1.80;0.90;;;;;;;17.97;73.04;97504.67;106807;1268;25443;-60
2023/08/03 01:45:40;;;;;;;1.30;0.90;;;;;;;18.03;72.98;97503.65;106871;1270;24256;-60
2023/08/03 01:48:09;;;;;;;2.00;1.00;;;;;;;18.06;72.96;97504.34;106727;1269;99215;-61
2023/08/03 01:50:37;;;;;;;1.40;0.80;;;;;;;18.11;72.85;97506.71;106802;1269;25294;-58
2023/08/03 01:53:06;;;;;;;1.90;0.80;;;;;;;18.16;72.82;97505.39;106745;1268;99175;-60
2023/08/03 01:55:37;;;;;;;2.30;1.20;;;;;;;18.16;72.89;97504.71;106874;1268;24844;-60
2023/08/03 01:58:06;;;;;;;2.50;0.80;;;;;;;18.19;72.95;97511.42;106818;1269;99266;-59
2023/08/03 02:00:34;;;;;;;2.40;0.90;;;;;;;18.23;72.82;97502.41;106771;1272;22527;-60
2023/08/03 02:03:03;;;;;;;1.80;0.80;;;;;;;18.24;72.87;97502.70;106893;1269;25409;-59
2023/08/03 02:05:32;;;;;;;3.50;1.10;;;;;;;18.25;72.80;97499.27;106742;1269;99148;-62
2023/08/03 02:08:01;;;;;;;1.00;0.80;;;;;;;18.24;72.88;97500.16;106831;1268;25398;-61
2023/08/03 02:10:30;;;;;;;1.00;0.90;;;;;;;18.28;72.93;97500.51;106742;1275;99834;-59
2023/08/03 02:12:59;;;;;;;0.80;0.80;;;;;;;18.30;72.86;97507.41;106947;1269;26178;-59
2023/08/03 02:15:27;;;;;;;2.20;1.20;;;;;;;18.32;72.89;97506.85;106820;1269;25361;-58
2023/08/03 02:17:56;;;;;;;2.40;1.00;;;;;;;18.32;72.89;97507.51;106718;1269;99308;-60
2023/08/03 02:20:25;;;;;;;1.70;0.90;;;;;;;18.34;72.94;97510.65;106903;1269;25378;-61
2023/08/03 02:22:53;;;;;;;1.90;1.00;;;;;;;18.35;72.85;97508.82;106779;1270;99103;-61
2023/08/03 02:25:23;;;;;;;2.60;0.90;;;;;;;18.33;72.63;97500.55;106820;1269;22534;-58
2023/08/03 02:27:52;;;;;;;2.30;0.90;;;;;;;18.24;72.60;97498.24;106917;1275;24296;-59
2023/08/03 02:30:21;;;;;;;2.60;1.10;;;;;;;18.11;72.50;97490.38;106843;1252;99240;-59
2023/08/03 02:32:50;;;;;;;1.30;0.80;;;;;;;18.01;72.46;97479.71;106811;1275;22741;-60
2023/08/03 02:35:19;;;;;;;3.00;0.80;;;;;;;17.93;72.42;97475.72;106738;1260;99354;-60
2023/08/03 02:37:47;;;;;;;1.00;0.70;;;;;;;17.84;72.58;97480.95;106789;1269;25408;-58
2023/08/03 02:40:16;;;;;;;4.30;1.10;;;;;;;17.83;72.52;97485.46;106773;1269;99325;-61
2023/08/03 02:42:46;;;;;;;2.20;0.90;;;;;;;17.71;72.70;97489.67;106836;1268;25456;-58
2023/08/03 02:45:15;;;;;;;2.50;0.90;;;;;;;17.64;72.69;97492.08;106845;1269;22517;-60
2023/08/03 02:47:43;;;;;;;1.50;0.90;;;;;;;17.61;72.81;97493.00;106879;1269;99200;-64
2023/08/03 02:50:13;;;;;;;1.80;0.80;;;;;;;17.56;72.85;97493.55;106834;1269;22518;-60
2023/08/03 02:52:42;;;;;;;2.30;0.90;;;;;;;17.52;73.09;97495.91;106698;1269;99822;-59
2023/08/03 02:55:10;;;;;;;1.20;1.00;;;;;;;17.45;73.15;97495.27;106819;1270;25336;-59
2023/08/03 02:57:39;;;;;;;3.40;1.10;;;;;;;17.39;73.33;97497.01;106982;1271;24443;-61
2023/08/03 03:00:09;;;;;;;2.30;1.10;;;;;;;17.35;73.40;97496.79;106839;1270;101039;-61
2023/08/03 03:02:38;;;;;;;2.30;1.20;;;;;;;17.28;73.53;97493.88;106815;1269;22634;-60
2023/08/03 03:05:10;;;;;;;2.90;1.20;;;;;;;17.23;73.66;97495.48;106784;1269;99202;-61
2023/08/03 03:07:39;;;;;;;1.50;0.80;;;;;;;17.21;73.78;97491.23;106977;1269;22526;-61
2023/08/03 03:10:13;;;;;;;1.90;1.10;;;;;;;17.21;74.02;97491.46;106938;1269;100006;-61
2023/08/03 03:12:42;;;;;;;2.00;1.40;;;;;;;17.24;74.17;97490.77;106830;1269;24347;-59
2023/08/03 03:15:10;;;;;;;2.20;1.10;;;;;;;17.28;74.32;97488.14;106858;1269;25265;-59
2023/08/03 03:17:42;;;;;;;1.30;0.90;;;;;;;17.32;74.30;97491.66;106820;1269;99063;-61
2023/08/03 03:20:12;;;;;;;1.90;0.90;;;;;;;17.36;74.36;97495.30;106907;1269;24234;-61
2023/08/03 03:22:40;;;;;;;2.00;1.30;;;;;;;17.41;74.57;97499.48;106880;1269;99313;-60
2023/08/03 03:25:09;;;;;;;3.20;0.90;;;;;;;17.50;74.68;97504.43;106802;1269;22768;-61
2023/08/03 03:27:38;;;;;;;0.90;0.80;;;;;;;17.58;74.77;97498.59;106994;1269;22522;-61
2023/08/03 03:30:07;;;;;;;1.70;0.80;;;;;;;17.65;74.89;97497.27;106795;1269;99085;-61
2023/08/03 03:32:40;;;;;;;0.80;0.60;;;;;;;17.72;74.86;97505.59;106778;1269;22535;-61
2023/08/03 03:35:09;;;;;;;1.00;0.80;;;;;;;17.80;74.91;97510.34;106823;1273;99190;-60
2023/08/03 03:37:38;;;;;;;1.80;1.20;;;;;;;17.88;75.01;97513.08;106878;1269;24436;-58
2023/08/03 03:40:07;;;;;;;1.40;0.90;;;;;;;17.96;75.09;97510.89;106812;1273;99247;-63
2023/08/03 03:42:36;;;;;;;1.30;0.80;;;;;;;18.04;75.09;97509.52;106846;1269;22626;-60
2023/08/03 03:45:08;;;;;;;1.40;0.90;;;;;;;18.14;75.14;97508.35;107038;1269;22763;-59
2023/08/03 03:47:37;;;;;;;1.50;0.70;;;;;;;18.28;74.98;97509.27;107068;1269;100017;-60
2023/08/03 03:50:10;;;;;;;3.50;1.00;;;;;;;18.28;75.21;97506.42;106971;1269;22636;-61
2023/08/03 03:52:38;;;;;;;0.80;0.70;;;;;;;18.31;75.15;97503.08;106761;1269;99786;-59
2023/08/03 03:55:08;;;;;;;1.20;0.70;;;;;;;18.30;75.14;97501.97;106965;1269;23079;-60
2023/08/03 03:57:36;;;;;;;1.30;0.80;;;;;;;18.14;75.53;97504.84;107028;1269;22527;-61
2023/08/03 04:00:06;;;;;;;1.80;0.80;;;;;;;17.80;76.09;97506.80;106825;1272;99183;-59
2023/08/03 04:02:35;;;;;;;1.30;0.90;;;;;;;17.46;77.03;97510.66;106812;1269;22516;-60
2023/08/03 04:05:04;;;;;;;1.50;0.70;;;;;;;17.15;77.22;97515.36;106897;1269;99107;-60
2023/08/03 04:07:33;;;;;;;1.90;0.80;;;;;;;16.86;78.38;97513.23;106887;1270;24209;-63
2023/08/03 04:10:02;;;;;;;2.90;0.90;;;;;;;16.66;80.91;97510.55;106867;1270;23896;-64
2023/08/03 04:12:31;;;;;;;1.30;0.80;;;;;;;16.54;82.25;97502.60;106906;1269;22524;-60
2023/08/03 04:15:00;;;;;;;1.30;0.80;;;;;;;16.49;82.88;97497.34;106858;1269;25233;-60
2023/08/03 04:17:31;;;;;;;2.00;1.10;;;;;;;16.39;84.93;97508.09;106796;1268;99616;-62
2023/08/03 04:20:03;;;;;;;1.90;1.10;;;;;;;16.32;85.99;97509.04;106838;1269;23712;-60
2023/08/03 04:22:35;;;;;;;1.80;0.80;;;;;;;16.29;87.31;97502.19;106748;1268;99253;-63
2023/08/03 04:25:09;;;;;;;0.70;0.60;;;;;;;16.27;87.73;97507.38;106809;1269;22537;-64
2023/08/03 04:27:38;;;;;;;1.10;0.90;;;;;;;16.25;87.34;97516.36;106751;1269;23890;-61
2023/08/03 04:30:11;;;;;;;1.20;0.80;;;;;;;16.21;87.74;97518.00;106781;1269;99352;-60
2023/08/03 04:32:42;;;;;;;0.80;0.70;;;;;;;16.18;87.92;97522.18;106952;1262;24625;-61
2023/08/03 04:35:13;;;;;;;1.00;0.80;;;;;;;16.13;87.88;97527.43;106778;1269;99098;-62
2023/08/03 04:37:42;;;;;;;1.40;0.80;;;;;;;16.10;88.67;97529.73;106820;1269;22555;-61
2023/08/03 04:40:23;;;;;;;0.90;0.80;;;;;;;16.14;89.51;97531.24;106816;1272;99272;-60
2023/08/03 04:42:52;;;;;;;1.10;0.90;;;;;;;16.20;89.89;97529.54;106769;1271;25348;-60
2023/08/03 04:45:23;;;;;;;1.20;1.00;;;;;;;16.22;90.15;97530.33;106861;1269;22931;-60
2023/08/03 04:47:52;;;;;;;1.50;0.80;;;;;;;16.23;90.54;97526.27;106688;1275;100783;-60
2023/08/03 04:50:22;;;;;;;1.90;0.90;;;;;;;16.24;90.22;97523.13;106928;1269;22519;-60
2023/08/03 04:52:51;;;;;;;1.20;0.90;;;;;;;16.22;90.44;97523.05;106865;1275;99146;-60
2023/08/03 04:55:20;;;;;;;1.20;0.90;;;;;;;16.21;90.40;97530.08;106800;1269;24231;-62
2023/08/03 04:57:48;;;;;;;1.20;0.80;;;;;;;16.25;91.37;97527.09;107013;1269;24357;-59
2023/08/03 05:00:17;;;;;;;1.00;0.70;;;;;;;16.28;91.99;97528.69;106830;1269;99131;-60
2023/08/03 05:02:50;;;;;;;1.60;1.00;;;;;;;16.41;92.46;97530.08;106803;1269;25287;-60
2023/08/03 05:05:22;;;;;;;1.00;0.90;;;;;;;16.63;92.64;97530.80;106735;1269;99091;-61
2023/08/03 05:07:51;;;;;;;4.00;1.00;;;;;;;16.72;92.39;97533.63;106801;1270;23329;-61
2023/08/03 05:10:23;;;;;;;1.50;1.20;;;;;;;16.66;92.15;97534.98;106672;1270;99223;-60
2023/08/03 05:12:54;;;;;;;1.10;0.80;;;;;;;16.70;92.34;97539.95;106828;1272;24262;-63
2023/08/03 05:15:23;;;;;;;1.40;1.10;;;;;;;16.66;93.03;97539.35;106838;1275;22639;-60
2023/08/03 05:17:52;;;;;;;1.20;0.80;;;;;;;16.69;93.50;97543.65;106847;1275;99122;-61
2023/08/03 05:20:21;;;;;;;1.20;1.00;;;;;;;16.64;93.40;97545.71;106962;1270;25399;-61
2023/08/03 05:22:53;;;;;;;1.10;1.00;;;;;;;16.73;92.91;97548.05;106759;1266;99849;-61
2023/08/03 05:25:21;;;;;;;3.20;1.10;;;;;;;16.77;93.41;97552.42;106859;1269;25315;-60
2023/08/03 05:27:50;;;;;;;1.70;1.00;;;;;;;16.79;93.68;97560.40;106901;1269;25388;-61
2023/08/03 05:30:22;;;;;;;1.50;1.00;;;;;;;16.82;94.09;97561.98;106906;1270;99193;-60
2023/08/03 05:32:53;;;;;;;1.50;1.00;;;;;;;16.83;94.35;97558.92;106905;1268;26099;-60
2023/08/03 05:35:22;;;;;;;1.30;1.00;;;;;;;16.80;94.22;97560.05;106723;1269;101098;-54
2023/08/03 05:37:53;;;;;;;1.30;1.00;;;;;;;16.77;94.47;97566.33;106832;1269;22565;-60
2023/08/03 05:40:22;;;;;;;1.00;0.90;;;;;;;16.75;94.65;97569.34;106789;1269;99791;-60
2023/08/03 05:42:52;;;;;;;1.50;1.00;;;;;;;16.76;94.84;97571.89;106815;1275;24259;-64
2023/08/03 05:45:47;;;;;;;2.40;1.40;;;;;;;16.87;95.10;97573.10;106904;1269;25269;-61
2023/08/03 05:48:21;;;;;;;1.30;1.10;;;;;;;17.10;95.67;97581.62;106768;1269;99409;-60
2023/08/03 05:50:53;;;;;;;1.80;1.10;;;;;;;17.34;95.90;97576.52;106844;1271;24989;-59
2023/08/03 05:53:24;;;;;;;1.10;0.90;;;;;;;17.57;96.38;97575.41;106777;1272;99350;-61
2023/08/03 05:55:54;;;;;;;2.20;1.10;;;;;;;17.66;96.02;97573.73;106880;1269;22537;-60
2023/08/03 05:58:40;;;;;;;2.00;1.30;;;;;;;17.66;95.89;97578.27;106925;1275;99291;-61
2023/08/03 06:01:11;;;;;;;1.70;1.20;;;;;;;17.63;96.13;97574.24;107045;1256;23845;-61
2023/08/03 06:03:45;;;;;;;1.50;1.00;;;;;;;17.55;97.18;97575.98;106691;1270;345523;-63
2023/08/03 06:06:19;;;;;;;1.00;0.90;;;;;;;17.68;96.95;97585.65;106826;1269;99254;-63
2023/08/03 06:08:53;;;;;;;3.10;1.60;;;;;;;17.71;96.76;97591.34;106928;1269;25682;-63
2023/08/03 06:11:21;;;;;;;1.80;1.20;;;;;;;17.60;97.00;97589.45;106935;1269;99675;-61
2023/08/03 06:13:58;;;;;;;1.70;1.20;;;;;;;17.49;97.93;97597.30;106938;1269;22527;-61
2023/08/03 06:16:29;;;;;;;1.20;1.00;;;;;;;17.53;98.17;97595.54;106775;1269;99352;-61
2023/08/03 06:19:01;;;;;;;2.40;1.30;;;;;;;17.63;97.99;97594.42;106929;1270;25403;-62
2023/08/03 06:21:32;;;;;;;1.20;1.10;;;;;;;17.78;98.71;97601.24;106921;1269;25412;-60
2023/08/03 06:24:04;;;;;;;1.00;0.90;;;;;;;18.11;99.56;97611.55;106632;1272;99370;-62
2023/08/03 06:26:37;;;;;;;1.40;1.00;;;;;;;18.35;99.26;97614.14;106981;1270;23866;-62
2023/08/03 06:29:09;;;;;;;2.00;1.60;;;;;;;18.47;98.73;97612.95;106936;1269;99352;-58
2023/08/03 06:31:41;;;;;;;1.50;1.10;;;;;;;18.53;99.00;97610.64;107077;1269;25391;-61
2023/08/03 06:34:12;;;;;;;1.00;0.80;;;;;;;18.52;98.79;97613.43;106695;1270;99848;-60
2023/08/03 06:36:45;;;;;;;1.70;1.10;;;;;;;18.61;99.12;97610.04;106812;1269;22530;-64
2023/08/03 06:39:14;;;;;;;2.20;1.10;;;;;;;18.55;98.57;97610.36;106821;1269;22526;-60
2023/08/03 06:41:43;;;;;;;1.50;0.80;;;;;;;18.60;98.07;97615.56;106653;1262;99118;-58
2023/08/03 06:44:13;;;;;;;1.20;0.90;;;;;;;18.86;98.47;97614.86;106850;1269;22658;-58
2023/08/03 06:46:43;;;;;;;2.30;1.20;;;;;;;19.09;97.63;97614.88;106754;1269;99380;-57
2023/08/03 06:49:12;;;;;;;1.10;1.00;;;;;;;19.31;97.73;97616.52;106874;1269;22624;-60
2023/08/03 06:51:41;;;;;;;1.30;1.20;;;;;;;19.62;97.82;97617.40;106844;1275;25335;-59
2023/08/03 06:54:10;;;;;;;1.00;0.90;;;;;;;19.98;97.89;97619.23;107020;1270;99482;-55
2023/08/03 06:56:39;;;;;;;1.40;1.00;;;;;;;20.32;97.67;97621.16;106993;1269;25468;-55
2023/08/03 06:59:08;;;;;;;1.00;0.90;;;;;;;20.42;96.19;97622.70;106771;1275;99122;-57
2023/08/03 07:01:39;;;;;;;1.70;0.90;;;;;;;20.34;96.23;97627.39;106928;1253;22525;-56
2023/08/03 07:04:08;;;;;;;1.20;1.00;;;;;;;20.66;97.16;97629.78;106846;1269;99233;-55
2023/08/03 07:06:37;;;;;;;1.50;1.00;;;;;;;20.83;96.79;97636.44;106898;1269;24037;-55
2023/08/03 07:09:06;;;;;;;2.40;0.90;;;;;;;21.14;97.53;97637.31;106899;1267;25465;-55
2023/08/03 07:11:37;;;;;;;0.80;0.80;;;;;;;21.39;96.62;97636.85;106780;1269;99383;-56
2023/08/03 07:14:06;;;;;;;1.60;0.80;;;;;;;21.68;96.87;97635.84;106857;1270;22545;-58
2023/08/03 07:16:36;;;;;;;1.30;0.90;;;;;;;22.38;98.79;97633.48;106929;1270;99271;-55
2023/08/03 07:19:10;;;;;;;1.00;0.80;;;;;;;23.12;98.66;97633.41;106984;1270;24294;-58
2023/08/03 07:21:38;;;;;;;1.10;0.70;;;;;;;24.14;99.25;97631.96;106893;1272;25353;-60
2023/08/03 07:24:07;;;;;;;1.20;0.80;;;;;;;25.15;99.44;97637.82;106754;1272;99066;-59
2023/08/03 07:26:36;;;;;;;0.50;0.50;;;;;;;26.56;98.83;97642.42;106893;1269;25405;-57
2023/08/03 07:29:05;;;;;;;2.80;0.80;;;;;;;26.60;94.36;97647.08;106995;1275;99112;-60
2023/08/03 07:31:34;;;;;;;1.20;0.70;;;;;;;26.33;93.81;97655.46;106936;1270;22528;-60
2023/08/03 07:34:03;;;;;;;1.60;0.60;;;;;;;26.23;94.36;97655.04;106846;1269;22524;-59
2023/08/03 07:36:32;;;;;;;1.80;0.70;;;;;;;26.82;94.71;97656.30;106789;1275;25445;-60
2023/08/03 07:39:01;;;;;;;0.50;0.50;;;;;;;26.73;90.16;97659.44;106919;1267;24333;-61
2023/08/03 07:41:30;;;;;;;0.80;0.50;;;;;;;26.57;90.54;97665.19;106814;1272;99120;-61
2023/08/03 07:43:59;;;;;;;1.50;0.60;;;;;;;26.63;88.94;97663.00;106964;1269;22520;-59
2023/08/03 07:46:29;;;;;;;0.80;0.30;;;;;;;26.66;88.54;97676.38;106786;1275;101010;-65
2023/08/03 07:48:58;;;;;;;3.40;0.70;;;;;;;27.31;88.89;97676.17;106956;1270;22603;-63
2023/08/03 07:51:27;;;;;;;1.10;0.50;;;;;;;27.95;87.41;97676.97;106963;1270;25269;-60
2023/08/03 07:53:56;;;;;;;0.70;0.40;;;;;;;28.71;87.30;97676.86;106897;1273;99069;-60
2023/08/03 07:56:26;;;;;;;2.80;0.50;;;;;;;30.36;87.87;97678.44;106846;1273;25383;-60
2023/08/03 07:58:59;;;;;;;0.60;0.40;;;;;;;30.96;83.85;97683.04;107069;1269;171836;-62
2023/08/03 08:01:28;;;;;;;1.50;0.40;;;;;;;32.32;86.38;97679.27;107154;1272;27468;-60
2023/08/03 08:03:58;;;;;;;5.10;0.50;;;;;;;34.34;84.33;97681.10;106952;1272;23790;-61
2023/08/03 08:06:27;;;;;;;1.20;0.40;;;;;;;34.28;79.79;97680.48;106939;1269;99027;-61
2023/08/03 08:08:55;;;;;;;0.30;0.30;;;;;;;32.94;77.77;97685.23;107286;1266;22639;-61
2023/08/03 08:11:28;;;;;;;1.70;0.90;;;;;;;32.03;76.65;97689.35;106757;1269;99173;-60
2023/08/03 08:13:59;;;;;;;1.20;0.60;;;;;;;31.81;76.91;97690.86;106900;1270;22521;-58
2023/08/03 08:16:28;;;;;;;1.10;0.50;;;;;;;32.86;78.04;97688.11;106653;1270;100196;-59
2023/08/03 08:18:57;;;;;;;0.40;0.30;;;;;;;35.03;76.91;97687.88;107130;1269;25430;-60
2023/08/03 08:21:26;;;;;;;3.10;0.70;;;;;;;37.16;74.81;97694.43;107010;1275;24067;-60
2023/08/03 08:24:04;;;;;;;0.70;0.50;;;;;;;37.58;69.84;97696.23;106853;1275;99118;-62
2023/08/03 08:26:35;;;;;;;1.30;0.50;;;;;;;36.90;68.39;97698.97;106958;1270;22746;-60
2023/08/03 08:29:04;;;;;;;1.30;0.40;;;;;;;36.51;67.93;97699.99;106863;1275;99382;-61
2023/08/03 08:31:37;;;;;;;1.10;0.50;;;;;;;36.04;65.55;97696.13;107046;1273;25275;-61
2023/08/03 08:34:27;;;;;;;1.30;0.50;;;;;;;36.72;64.83;97698.85;106868;1269;99717;-60
2023/08/03 08:37:00;;;;;;;1.30;0.50;;;;;;;36.26;62.53;97698.61;107269;1270;22643;-61
2023/08/03 08:39:34;;;;;;;2.00;0.40;;;;;;;34.60;60.15;97703.18;107083;1269;22554;-60
2023/08/03 08:42:12;;;;;;;2.40;0.50;;;;;;;32.95;59.47;97705.88;107011;1273;99094;-62
2023/08/03 08:44:45;;;;;;;0.60;0.30;;;;;;;32.03;58.82;97708.67;107044;1269;25233;-61
2023/08/03 08:47:14;;;;;;;1.30;0.40;;;;;;;31.42;58.37;97707.21;106946;1270;99691;-61
2023/08/03 08:49:43;;;;;;;0.80;0.40;;;;;;;31.65;58.78;97711.17;106996;1269;22519;-59
2023/08/03 08:52:17;;;;;;;2.40;0.40;;;;;;;33.23;58.59;97706.75;106926;1267;99267;-61
2023/08/03 08:55:18;;;;;;;1.30;0.50;;;;;;;34.38;56.47;97710.94;107200;1269;22543;-57
2023/08/03 08:57:59;;;;;;;0.60;0.40;;;;;;;33.69;55.38;97715.73;107622;1268;22524;-63
2023/08/03 09:00:45;;;;;;;1.90;0.40;;;;;;;33.12;54.86;97723.26;107212;1265;26184;-59
2023/08/03 09:03:21;;;;;;;1.50;0.50;;;;;;;32.91;55.03;97724.48;106958;1270;22645;-58
2023/08/03 09:06:00;;;;;;;0.90;0.50;;;;;;;34.25;54.64;97721.89;106870;1272;99137;-60
2023/08/03 09:08:51;;;;;;;0.60;0.30;;;;;;;35.18;53.78;97718.92;106953;1268;27148;-62
2023/08/03 09:11:37;;;;;;;2.40;0.40;;;;;;;35.78;52.77;97721.45;107098;1270;99279;-58
2023/08/03 09:14:14;;;;;;;2.10;0.50;;;;;;;37.43;52.51;97726.71;107097;1272;25395;-61
2023/08/03 09:16:56;;;;;;;4.80;0.70;;;;;;;38.67;51.18;97726.74;106897;1268;99303;-59
2023/08/03 09:19:38;;;;;;;0.80;0.30;;;;;;;38.35;48.87;97725.61;106836;1270;25436;-59
2023/08/03 09:22:28;;;;;;;0.60;0.30;;;;;;;37.33;47.82;97720.78;106938;1272;99914;-59
2023/08/03 09:25:07;;;;;;;3.00;0.40;;;;;;;36.49;46.96;97724.07;106792;1272;23273;-60
2023/08/03 09:27:52;;;;;;;2.00;0.60;;;;;;;37.24;48.16;97728.68;106957;1269;24278;-65
2023/08/03 09:30:25;;;;;;;0.30;0.20;;;;;;;39.32;46.07;97723.84;106872;1272;99622;-64
2023/08/03 09:33:14;;;;;;;5.30;0.70;;;;;;;38.04;43.87;97724.60;107166;1273;25288;-57
2023/08/03 09:36:34;;;;;;;1.10;0.40;;;;;;;36.11;43.03;97729.34;106900;1273;99078;-68
2023/08/03 09:39:16;;;;;;;0.60;0.50;;;;;;;34.36;42.27;97728.89;107155;1273;25230;-67
2023/08/03 09:41:51;;;;;;;1.20;0.50;;;;;;;32.53;42.10;97739.98;107041;1272;99187;-61
2023/08/03 09:44:25;;;;;;;3.50;0.70;;;;;;;31.44;42.27;97737.20;106910;1259;25473;-63
2023/08/03 09:47:07;;;;;;;2.40;0.80;;;;;;;31.13;43.38;97735.36;106977;1274;100115;-62
2023/08/03 09:49:36;;;;;;;0.80;0.40;;;;;;;34.03;44.09;97736.59;106952;1273;25325;-60
2023/08/03 09:52:17;;;;;;;1.50;0.60;;;;;;;35.40;42.46;97732.14;106847;1270;99234;-62
2023/08/03 09:54:56;;;;;;;1.80;0.60;;;;;;;35.37;43.13;97737.42;106989;1273;24205;-62
2023/08/03 09:57:34;;;;;;;1.60;0.40;;;;;;;37.94;43.13;97732.23;106947;1269;25482;-62
2023/08/03 10:00:07;;;;;;;2.30;0.60;;;;;;;39.84;41.03;97729.16;106936;1272;99098;-65
2023/08/03 10:02:51;;;;;;;3.60;0.60;;;;;;;37.85;38.95;97736.22;107356;1271;26733;-66
2023/08/03 10:05:26;;;;;;;1.00;0.50;;;;;;;35.95;38.76;97741.77;107122;1270;99552;-62
2023/08/03 10:08:06;;;;;;;1.10;0.30;;;;;;;35.97;38.74;97736.95;107337;1267;22562;-63
2023/08/03 10:10:47;;;;;;;2.60;0.70;;;;;;;36.01;39.34;97734.59;106882;1263;100111;-58
2023/08/03 10:13:24;;;;;;;1.20;0.50;;;;;;;38.26;38.58;97732.51;107061;1270;25300;-61
2023/08/03 10:15:53;;;;;;;2.90;0.50;;;;;;;40.57;38.76;97729.68;106786;1270;22594;-59
2023/08/03 10:18:26;;;;;;;2.00;0.60;;;;;;;43.57;38.58;97734.92;106892;1261;99357;-59
2023/08/03 10:21:16;;;;;;;1.60;0.60;;;;;;;44.92;34.58;97730.82;106964;1270;26281;-61
2023/08/03 10:24:10;;;;;;;1.70;0.90;;;;;;;44.30;33.05;97725.32;107289;1274;98280;-60
2023/08/03 10:27:13;;;;;;;1.40;1.10;;;;;;;43.44;31.67;97725.23;107088;1269;25287;-60
2023/08/03 10:30:22;;;;;;;1.10;0.50;;;;;;;41.28;31.09;97725.37;107109;1253;99580;-59
2023/08/03 10:32:57;;;;;;;2.70;1.10;;;;;;;41.49;31.46;97722.92;107271;1267;22561;-60
2023/08/03 10:35:41;;;;;;;2.70;0.90;;;;;;;43.24;30.62;97710.09;106791;1270;99305;-60
2023/08/03 10:38:20;;;;;;;3.50;1.00;;;;;;;43.84;29.70;97710.94;107222;1270;24200;-58
2023/08/03 10:40:52;;;;;;;2.20;0.60;;;;;;;42.08;28.28;97703.39;108512;1268;98344;-59
2023/08/03 10:43:21;;;;;;;1.30;0.70;;;;;;;39.23;28.07;97699.40;107906;1269;25318;-59
2023/08/03 10:45:50;;;;;;;1.50;0.40;;;;;;;38.95;28.77;97700.38;110657;1270;22222;-60
2023/08/03 10:48:37;;;;;;;2.00;0.50;;;;;;;37.81;28.07;97699.51;108148;1270;99585;-60
2023/08/03 10:51:06;;;;;;;1.30;0.50;;;;;;;36.85;29.13;97699.30;106851;1270;25348;-61
2023/08/03 10:53:36;;;;;;;1.10;0.50;;;;;;;37.79;28.38;97690.48;106864;1270;99105;-58
2023/08/03 10:56:10;;;;;;;2.80;0.90;;;;;;;36.13;28.33;97696.27;106992;1269;22780;-59
2023/08/03 10:58:47;;;;;;;0.90;0.50;;;;;;;34.33;28.62;97695.41;106827;1269;99311;-60
2023/08/03 11:01:23;;;;;;;1.90;0.40;;;;;;;32.76;29.08;97701.40;107473;1272;25397;-59
2023/08/03 11:03:53;;;;;;;;;;;;;;;31.59;29.38;97702.73;107608;1269;25549;-58
2023/08/03 11:06:24;;;;;;;1.90;0.70;;;;;;;30.90;30.54;97691.10;106940;1272;85671;-60
2023/08/03 11:08:54;;;;;;;0.60;0.30;;;;;;;33.12;31.86;97690.06;107007;1270;24202;-59
2023/08/03 11:11:32;;;;;;;2.40;0.70;;;;;;;36.71;31.01;97689.39;106765;1260;99292;-60
2023/08/03 11:14:03;;;;;;;1.30;0.70;;;;;;;36.53;30.82;97684.58;106926;1269;24413;-61
2023/08/03 11:16:34;;;;;;;1.00;0.50;;;;;;;37.53;31.08;97676.92;109730;1269;99239;-63
2023/08/03 11:19:06;;;;;;;0.80;0.40;;;;;;;37.54;29.90;97674.11;106787;1270;24352;-61
2023/08/03 11:21:35;;;;;;;1.00;0.60;;;;;;;38.44;30.74;97682.70;106871;1270;22524;-57
2023/08/03 11:24:04;;;;;;;1.10;0.50;;;;;;;40.12;29.76;97686.08;106725;1270;99126;-58
2023/08/03 11:26:48;;;;;;;0.70;0.50;;;;;;;40.59;28.92;97684.23;106804;1273;22571;-59
2023/08/03 11:29:18;;;;;;;2.30;1.00;;;;;;;41.78;29.19;97679.66;106861;1272;99179;-61
2023/08/03 11:31:47;;;;;;;4.00;0.80;;;;;;;42.32;28.37;97666.11;106784;1270;22666;-58
2023/08/03 11:34:16;;;;;;;0.90;0.70;;;;;;;41.96;27.90;97670.48;106745;1275;99239;-57
2023/08/03 11:36:49;;;;;;;1.10;0.50;;;;;;;40.32;27.18;97664.74;106869;1270;22532;-67
2023/08/03 11:39:19;;;;;;;2.50;0.70;;;;;;;39.39;26.73;97665.90;107046;1272;25353;-58
2023/08/03 11:41:51;;;;;;;2.60;1.10;;;;;;;38.25;26.47;97668.50;106813;1269;99113;-61
2023/08/03 11:44:22;;;;;;;1.40;0.60;;;;;;;38.46;26.81;97658.83;106792;1270;25515;-61
2023/08/03 11:47:05;;;;;;;0.60;0.50;;;;;;;39.21;26.67;97658.94;106726;1270;99655;-60